createdAt,value
2022-09-04T00:01:17.536Z,13.51
2022-09-04T00:04:00.521Z,13.48
2022-09-04T00:06:38.241Z,13.47
2022-09-04T00:09:16.043Z,13.43
2022-09-04T00:12:08.706Z,13.43
2022-09-04T00:14:45.295Z,13.45
2022-09-04T00:17:49.988Z,13.43
2022-09-04T00:20:25.374Z,13.40
2022-09-04T00:23:25.292Z,13.41
2022-09-04T00:25:57.282Z,13.40
2022-09-04T00:28:30.566Z,13.37
2022-09-04T00:31:04.367Z,13.33
2022-09-04T00:33:54.753Z,13.34
2022-09-04T00:36:24.176Z,13.28
2022-09-04T00:38:57.517Z,13.25
2022-09-04T00:41:45.847Z,13.26
2022-09-04T00:44:47.387Z,13.20
2022-09-04T00:47:31.988Z,13.19
2022-09-04T00:50:11.762Z,13.19
2022-09-04T00:52:58.594Z,13.17
2022-09-04T00:56:03.523Z,13.19
2022-09-04T00:59:12.236Z,13.19
2022-09-04T01:01:39.031Z,13.15
2022-09-04T01:04:24.633Z,13.12
2022-09-04T01:07:22.880Z,13.17
2022-09-04T01:10:25.114Z,13.20
2022-09-04T01:13:03.578Z,13.20
2022-09-04T01:15:41.169Z,13.26
2022-09-04T01:18:24.129Z,13.26
2022-09-04T01:21:10.035Z,13.19
2022-09-04T01:23:52.131Z,13.27
2022-09-04T01:26:32.773Z,13.29
2022-09-04T01:29:22.787Z,13.30
2022-09-04T01:32:12.261Z,13.28
2022-09-04T01:34:49.684Z,13.26
2022-09-04T01:37:41.580Z,13.25
2022-09-04T01:40:36.597Z,13.25
2022-09-04T01:43:12.092Z,13.21
2022-09-04T01:45:54.577Z,13.29
2022-09-04T01:48:33.343Z,13.23
2022-09-04T01:51:12.727Z,13.28
2022-09-04T01:53:43.664Z,13.32
2022-09-04T01:56:19.074Z,13.37
2022-09-04T01:58:55.885Z,13.42
2022-09-04T02:01:45.778Z,13.45
2022-09-04T02:04:27.851Z,13.42
2022-09-04T02:07:26.477Z,13.39
2022-09-04T02:10:07.311Z,13.40
2022-09-04T02:12:50.964Z,13.46
2022-09-04T02:15:35.626Z,13.48
2022-09-04T02:18:26.836Z,13.45
2022-09-04T02:21:02.404Z,13.44
2022-09-04T02:23:52.102Z,13.43
2022-09-04T02:26:33.847Z,13.43
2022-09-04T02:29:24.289Z,13.41
2022-09-04T02:32:01.440Z,13.37
2022-09-04T02:34:52.010Z,13.39
2022-09-04T02:37:37.472Z,13.41
2022-09-04T02:40:20.507Z,13.43
2022-09-04T02:43:21.218Z,13.40
2022-09-04T02:45:57.016Z,13.39
2022-09-04T02:48:57.479Z,13.39
2022-09-04T02:51:46.525Z,13.38
2022-09-04T02:54:30.084Z,13.40
2022-09-04T02:57:15.156Z,13.37
2022-09-04T03:00:08.169Z,13.33
2022-09-04T03:02:45.132Z,13.30
2022-09-04T03:05:19.625Z,13.31
2022-09-04T03:07:51.257Z,13.33
2022-09-04T03:10:34.124Z,13.27
2022-09-04T03:13:10.428Z,13.22
2022-09-04T03:15:39.739Z,13.21
2022-09-04T03:18:17.155Z,13.20
2022-09-04T03:20:51.924Z,13.17
2022-09-04T03:23:29.717Z,13.13
2022-09-04T03:26:14.916Z,13.10
2022-09-04T03:29:24.560Z,13.01
2022-09-04T03:32:16.052Z,12.89
2022-09-04T03:35:07.871Z,12.89
2022-09-04T03:37:53.764Z,12.73
2022-09-04T03:40:42.766Z,12.50
2022-09-04T03:43:39.786Z,12.50
2022-09-04T03:46:09.081Z,12.52
2022-09-04T03:48:50.859Z,12.48
2022-09-04T03:51:25.553Z,12.48
2022-09-04T03:54:07.792Z,12.49
2022-09-04T03:56:59.265Z,12.51
2022-09-04T03:59:54.674Z,12.41
2022-09-04T04:02:35.180Z,12.23
2022-09-04T04:05:24.591Z,12.21
2022-09-04T04:08:28.855Z,12.30
2022-09-04T04:11:19.589Z,12.31
2022-09-04T04:14:15.220Z,12.30
2022-09-04T04:17:01.111Z,12.21
2022-09-04T04:19:40.591Z,12.01
2022-09-04T04:22:37.691Z,11.78
2022-09-04T04:25:16.471Z,11.72
2022-09-04T04:28:27.347Z,11.75
2022-09-04T04:31:18.884Z,11.82
2022-09-04T04:33:59.918Z,11.76
2022-09-04T04:36:41.232Z,11.64
2022-09-04T04:39:32.889Z,11.62
2022-09-04T04:42:18.467Z,11.59
2022-09-04T04:45:14.575Z,11.77
2022-09-04T04:47:52.911Z,11.61
2022-09-04T04:50:27.768Z,11.48
2022-09-04T04:53:08.121Z,11.41
2022-09-04T04:55:59.376Z,11.44
2022-09-04T04:59:20.457Z,11.58
2022-09-04T05:02:07.810Z,11.57
2022-09-04T05:04:40.351Z,11.65
2022-09-04T05:07:17.673Z,11.68
2022-09-04T05:09:51.548Z,11.78
2022-09-04T05:12:34.055Z,11.84
2022-09-04T05:15:13.357Z,11.97
2022-09-04T05:17:51.486Z,12.06
2022-09-04T05:20:48.765Z,12.15
2022-09-04T05:23:40.453Z,12.17
2022-09-04T05:26:16.939Z,12.22
2022-09-04T05:29:09.597Z,12.34
2022-09-04T05:31:56.942Z,12.51
2022-09-04T05:34:51.703Z,12.60
2022-09-04T05:37:45.970Z,12.72
2022-09-04T05:40:28.087Z,12.76
2022-09-04T05:43:10.227Z,12.89
2022-09-04T05:45:45.641Z,12.98
2022-09-04T05:48:25.024Z,13.05
2022-09-04T05:51:32.120Z,13.07
2022-09-04T05:54:40.627Z,13.15
2022-09-04T05:57:36.215Z,13.31
2022-09-04T06:00:13.250Z,13.37
2022-09-04T06:02:49.612Z,13.47
2022-09-04T06:05:26.234Z,13.63
2022-09-04T06:07:59.537Z,13.70
2022-09-04T06:10:41.129Z,13.83
2022-09-04T06:13:21.558Z,13.98
2022-09-04T06:16:06.714Z,14.07
2022-09-04T06:18:51.871Z,14.12
2022-09-04T06:21:52.556Z,14.25
2022-09-04T06:24:56.527Z,14.28
2022-09-04T06:27:44.556Z,14.32
2022-09-04T06:30:15.805Z,14.45
2022-09-04T06:32:55.910Z,14.56
2022-09-04T06:35:40.543Z,14.69
2022-09-04T06:38:27.153Z,14.72
2022-09-04T06:41:14.854Z,14.80
2022-09-04T06:44:01.143Z,14.94
2022-09-04T06:46:38.829Z,15.03
2022-09-04T06:49:21.128Z,15.23
2022-09-04T06:52:15.846Z,15.34
2022-09-04T06:55:07.773Z,15.49
2022-09-04T06:58:01.965Z,15.63
2022-09-04T07:00:32.224Z,15.75
2022-09-04T07:03:28.022Z,15.85
2022-09-04T07:06:24.450Z,15.91
2022-09-04T07:09:12.534Z,15.99
2022-09-04T07:12:26.586Z,16.11
2022-09-04T07:15:05.016Z,16.22
2022-09-04T07:17:38.078Z,16.18
2022-09-04T07:20:21.950Z,16.21
2022-09-04T07:22:54.413Z,16.26
2022-09-04T07:25:26.098Z,16.37
2022-09-04T07:28:50.007Z,16.49
2022-09-04T07:31:24.536Z,16.47
2022-09-04T07:34:15.576Z,16.55
2022-09-04T07:37:15.023Z,16.52
2022-09-04T07:39:56.911Z,16.51
2022-09-04T07:42:55.667Z,16.65
2022-09-04T07:45:48.567Z,16.77
2022-09-04T07:48:34.691Z,16.94
2022-09-04T07:51:10.462Z,17.02
2022-09-04T07:53:48.990Z,16.90
2022-09-04T07:56:35.199Z,17.04
2022-09-04T07:59:29.075Z,17.14
2022-09-04T08:02:10.755Z,17.28
2022-09-04T08:05:02.562Z,17.40
2022-09-04T08:07:32.769Z,17.42
2022-09-04T08:10:26.090Z,17.46
2022-09-04T08:12:56.207Z,17.43
2022-09-04T08:15:42.953Z,17.56
2022-09-04T08:18:28.483Z,17.70
2022-09-04T08:21:16.594Z,17.71
2022-09-04T08:23:49.019Z,17.66
2022-09-04T08:26:39.996Z,17.85
2022-09-04T08:29:40.016Z,17.95
2022-09-04T08:32:28.574Z,18.10
2022-09-04T08:35:17.998Z,18.30
2022-09-04T08:38:06.162Z,18.51
2022-09-04T08:40:54.316Z,18.53
2022-09-04T08:44:05.978Z,18.59
2022-09-04T08:47:19.581Z,18.59
2022-09-04T08:50:01.266Z,18.78
2022-09-04T08:52:52.567Z,18.88
2022-09-04T08:55:18.871Z,19.04
2022-09-04T08:58:00.573Z,19.05
2022-09-04T09:01:05.068Z,18.96
2022-09-04T09:04:11.953Z,19.16
2022-09-04T09:06:47.398Z,19.00
2022-09-04T09:09:34.753Z,18.87
2022-09-04T09:12:10.251Z,18.95
2022-09-04T09:14:55.017Z,19.09
2022-09-04T09:17:39.010Z,19.54
2022-09-04T09:20:19.964Z,19.59
2022-09-04T09:23:18.248Z,19.39
2022-09-04T09:26:04.438Z,19.53
2022-09-04T09:28:49.327Z,19.87
2022-09-04T09:31:46.383Z,19.86
2022-09-04T09:34:54.575Z,19.75
2022-09-04T09:37:53.860Z,19.91
2022-09-04T09:40:48.293Z,20.03
2022-09-04T09:43:29.829Z,20.18
2022-09-04T09:46:09.041Z,20.37
2022-09-04T09:48:44.613Z,20.29
2022-09-04T09:51:37.077Z,20.56
2022-09-04T09:54:30.471Z,20.33
2022-09-04T09:57:34.149Z,20.48
2022-09-04T10:00:09.448Z,20.37
2022-09-04T10:02:54.750Z,20.24
2022-09-04T10:05:51.805Z,20.27
2022-09-04T10:08:40.135Z,20.52
2022-09-04T10:11:38.825Z,20.81
2022-09-04T10:14:33.284Z,21.09
2022-09-04T10:17:30.471Z,21.02
2022-09-04T10:20:26.374Z,20.99
2022-09-04T10:23:29.073Z,20.98
2022-09-04T10:26:02.421Z,20.94
2022-09-04T10:28:59.412Z,21.25
2022-09-04T10:31:42.817Z,21.30
2022-09-04T10:34:20.152Z,21.35
2022-09-04T10:37:30.803Z,21.27
2022-09-04T10:40:34.540Z,21.28
2022-09-04T10:43:25.618Z,21.14
2022-09-04T10:46:22.976Z,20.92
2022-09-04T10:49:08.320Z,20.96
2022-09-04T10:52:04.855Z,21.07
2022-09-04T10:54:50.759Z,21.27
2022-09-04T10:57:37.235Z,21.09
2022-09-04T11:00:10.871Z,21.04
2022-09-04T11:03:03.200Z,21.07
2022-09-04T11:05:48.370Z,21.02
2022-09-04T11:08:39.698Z,21.08
2022-09-04T11:11:43.397Z,21.18
2022-09-04T11:14:36.305Z,21.32
2022-09-04T11:17:11.458Z,21.52
2022-09-04T11:20:07.933Z,21.60
2022-09-04T11:22:46.917Z,21.78
2022-09-04T11:25:37.377Z,21.85
2022-09-04T11:28:36.040Z,21.66
2022-09-04T11:31:33.247Z,21.48
2022-09-04T11:34:38.916Z,21.53
2022-09-04T11:37:47.260Z,21.51
2022-09-04T11:40:43.159Z,21.60
2022-09-04T11:44:05.924Z,21.76
2022-09-04T11:47:03.984Z,21.88
2022-09-04T11:50:07.572Z,21.85
2022-09-04T11:53:01.702Z,21.95
2022-09-04T11:55:58.311Z,22.01
2022-09-04T11:58:33.390Z,22.20
2022-09-04T12:01:10.025Z,22.36
2022-09-04T12:03:59.114Z,22.42
2022-09-04T12:06:37.582Z,22.35
2022-09-04T12:09:22.620Z,22.30
2022-09-04T12:12:18.244Z,22.19
2022-09-04T12:15:14.492Z,22.24
2022-09-04T12:18:04.405Z,22.43
2022-09-04T12:20:39.465Z,22.46
2022-09-04T12:23:26.155Z,22.36
2022-09-04T12:26:11.550Z,22.22
2022-09-04T12:28:38.093Z,22.14
2022-09-04T12:31:15.750Z,22.16
2022-09-04T12:34:18.332Z,22.46
2022-09-04T12:37:11.200Z,22.34
2022-09-04T12:40:05.742Z,22.35
2022-09-04T12:42:41.258Z,22.44
2022-09-04T12:45:07.698Z,22.60
2022-09-04T12:48:04.735Z,22.45
2022-09-04T12:51:13.675Z,22.58
2022-09-04T12:53:49.302Z,22.49
2022-09-04T12:56:26.154Z,22.53
2022-09-04T12:59:11.503Z,22.69
2022-09-04T13:02:34.208Z,22.78
2022-09-04T13:05:22.993Z,22.55
2022-09-04T13:07:54.956Z,22.72
2022-09-04T13:10:33.950Z,22.67
2022-09-04T13:13:18.307Z,22.95
2022-09-04T13:16:02.585Z,22.98
2022-09-04T13:18:34.745Z,22.74
2022-09-04T13:21:19.051Z,22.88
2022-09-04T13:23:57.128Z,23.14
2022-09-04T13:26:37.430Z,23.07
2022-09-04T13:29:23.546Z,23.00
2022-09-04T13:31:55.831Z,22.86
2022-09-04T13:35:00.345Z,22.70
2022-09-04T13:38:05.069Z,22.62
2022-09-04T13:40:43.517Z,22.90
2022-09-04T13:43:47.329Z,23.04
2022-09-04T13:46:30.010Z,23.12
2022-09-04T13:49:09.831Z,23.41
2022-09-04T13:51:43.296Z,23.46
2022-09-04T13:54:17.532Z,23.32
2022-09-04T13:56:52.511Z,23.40
2022-09-04T13:59:21.987Z,23.48
2022-09-04T14:01:54.669Z,23.53
2022-09-04T14:04:44.571Z,23.33
2022-09-04T14:07:25.024Z,23.24
2022-09-04T14:09:55.601Z,23.13
2022-09-04T14:12:24.688Z,23.20
2022-09-04T14:15:08.900Z,23.20
2022-09-04T14:17:46.075Z,23.41
2022-09-04T14:20:23.296Z,23.43
2022-09-04T14:23:20.271Z,22.91
2022-09-04T14:25:56.892Z,22.60
2022-09-04T14:29:08.514Z,22.60
2022-09-04T14:31:46.854Z,22.39
2022-09-04T14:34:38.664Z,22.30
2022-09-04T14:37:17.047Z,22.25
2022-09-04T14:39:57.756Z,22.21
2022-09-04T14:42:44.237Z,22.31
2022-09-04T14:45:36.544Z,22.33
2022-09-04T14:48:11.346Z,22.21
2022-09-04T14:50:49.359Z,22.18
2022-09-04T14:53:33.459Z,22.20
2022-09-04T14:56:19.295Z,22.14
2022-09-04T14:58:52.361Z,22.12
2022-09-04T15:01:25.851Z,22.13
2022-09-04T15:04:00.127Z,22.04
2022-09-04T15:06:49.269Z,21.96
2022-09-04T15:09:35.041Z,22.02
2022-09-04T15:12:26.846Z,21.96
2022-09-04T15:15:10.214Z,21.98
2022-09-04T15:17:39.942Z,21.98
2022-09-04T15:20:15.223Z,22.01
2022-09-04T15:22:50.276Z,21.99
2022-09-04T15:25:48.016Z,21.97
2022-09-04T15:28:38.249Z,22.14
2022-09-04T15:31:15.894Z,22.19
2022-09-04T15:33:44.262Z,22.09
2022-09-04T15:36:18.009Z,22.06
2022-09-04T15:38:52.271Z,22.07
2022-09-04T15:41:31.890Z,22.06
2022-09-04T15:44:08.556Z,21.99
2022-09-04T15:46:46.347Z,22.13
2022-09-04T15:49:28.729Z,22.14
2022-09-04T15:52:10.343Z,22.13
2022-09-04T15:54:39.747Z,22.22
2022-09-04T15:57:37.780Z,22.14
2022-09-04T16:00:14.977Z,22.08
2022-09-04T16:02:54.551Z,22.13
2022-09-04T16:05:44.705Z,22.11
2022-09-04T16:08:21.531Z,22.01
2022-09-04T16:11:01.408Z,22.03
2022-09-04T16:13:28.821Z,21.97
2022-09-04T16:16:04.374Z,21.89
2022-09-04T16:18:49.283Z,21.83
2022-09-04T16:21:32.318Z,21.65
2022-09-04T16:24:08.898Z,21.60
2022-09-04T16:26:36.957Z,21.56
2022-09-04T16:29:23.278Z,21.50
2022-09-04T16:31:54.980Z,21.43
2022-09-04T16:34:29.364Z,21.37
2022-09-04T16:37:09.498Z,21.39
2022-09-04T16:40:14.982Z,21.39
2022-09-04T16:42:46.769Z,21.35
2022-09-04T16:45:18.128Z,21.34
2022-09-04T16:47:55.443Z,21.35
2022-09-04T16:50:24.852Z,21.36
2022-09-04T16:53:13.476Z,21.39
2022-09-04T16:55:47.230Z,21.35
2022-09-04T16:58:35.347Z,21.28
2022-09-04T17:01:50.305Z,21.24
2022-09-04T17:04:21.296Z,21.20
2022-09-04T17:07:13.043Z,21.13
2022-09-04T17:09:48.408Z,21.05
2022-09-04T17:12:33.585Z,20.93
2022-09-04T17:15:21.875Z,20.88
2022-09-04T17:17:48.428Z,20.82
2022-09-04T17:22:20.164Z,20.76
2022-09-04T17:29:02.240Z,20.74
2022-09-04T17:29:08.797Z,20.67
2022-09-04T17:29:36.352Z,20.58
2022-09-04T17:32:33.639Z,20.49
2022-09-04T17:40:44.118Z,20.43
2022-09-04T17:41:34.653Z,20.32
2022-09-04T17:41:48.620Z,20.27
2022-09-04T17:44:50.412Z,20.18
2022-09-04T17:47:32.694Z,20.09
2022-09-04T17:50:01.365Z,20.07
2022-09-04T17:52:33.960Z,20.03
2022-09-04T17:55:08.047Z,19.95
2022-09-04T17:58:33.191Z,19.78
2022-09-04T18:01:14.588Z,19.79
2022-09-04T18:04:02.814Z,19.65
2022-09-04T18:06:50.805Z,19.54
2022-09-04T18:09:27.122Z,19.52
2022-09-04T18:12:35.882Z,19.52
2022-09-04T18:15:33.871Z,19.45
2022-09-04T18:18:27.941Z,19.34
2022-09-04T18:21:15.096Z,19.25
2022-09-04T18:23:51.175Z,19.24
2022-09-04T18:26:40.398Z,19.17
2022-09-04T18:31:59.193Z,19.04
2022-09-04T18:37:10.140Z,19.10
2022-09-04T18:37:18.975Z,18.95
2022-09-04T18:38:09.357Z,18.87
2022-09-04T18:43:44.999Z,18.82
2022-09-04T18:50:25.241Z,18.71
2022-09-04T18:50:34.796Z,18.69
2022-09-04T18:51:03.084Z,18.61
2022-09-04T18:52:21.611Z,18.62
2022-09-04T18:54:54.400Z,18.46
2022-09-04T18:57:29.682Z,18.43
2022-09-04T19:00:08.785Z,18.33
2022-09-04T19:03:11.918Z,18.28
2022-09-04T19:05:44.892Z,18.09
2022-09-04T19:08:20.474Z,18.04
2022-09-04T19:10:54.169Z,18.01
2022-09-04T19:13:28.724Z,18.04
2022-09-04T19:16:13.529Z,17.97
2022-09-04T19:18:46.078Z,17.91
2022-09-04T19:21:23.421Z,17.90
2022-09-04T19:23:50.403Z,17.85
2022-09-04T19:26:35.590Z,17.79
2022-09-04T19:29:17.585Z,17.67
2022-09-04T19:31:46.814Z,17.58
2022-09-04T19:34:28.423Z,17.46
2022-09-04T19:37:02.226Z,17.52
2022-09-04T19:46:03.557Z,17.55
2022-09-04T19:46:11.288Z,17.45
2022-09-04T19:46:24.941Z,17.43
2022-09-04T19:48:39.998Z,17.35
2022-09-04T19:53:30.628Z,17.29
2022-09-04T19:54:57.829Z,17.20
2022-09-04T19:57:46.222Z,17.13
2022-09-04T20:00:42.082Z,17.08
2022-09-04T20:03:29.554Z,17.06
2022-09-04T20:06:27.374Z,17.06
2022-09-04T20:09:12.948Z,17.05
2022-09-04T20:11:47.678Z,16.93
2022-09-04T20:14:26.523Z,17.01
2022-09-04T20:16:52.922Z,16.99
2022-09-04T20:19:31.075Z,16.98
2022-09-04T20:22:03.526Z,16.92
2022-09-04T20:24:42.959Z,16.91
2022-09-04T20:27:38.351Z,16.85
2022-09-04T20:30:24.490Z,16.84
2022-09-04T20:32:53.941Z,16.82
2022-09-04T20:35:44.476Z,16.80
2022-09-04T20:38:37.167Z,16.77
2022-09-04T20:41:16.534Z,16.78
2022-09-04T20:44:13.629Z,16.73
2022-09-04T20:52:44.714Z,16.73
2022-09-04T20:52:51.518Z,16.69
2022-09-04T20:53:05.941Z,16.70
2022-09-04T20:55:32.056Z,16.71
2022-09-04T21:02:48.595Z,16.70
2022-09-04T21:03:17.135Z,16.75
2022-09-04T21:04:23.840Z,16.78
2022-09-04T21:07:28.472Z,16.78
2022-09-04T21:10:15.099Z,16.84
2022-09-04T21:13:13.719Z,16.80
2022-09-04T21:15:40.573Z,16.75
2022-09-04T21:18:18.174Z,16.74
2022-09-04T21:21:00.648Z,16.68
2022-09-04T21:23:46.479Z,16.70
2022-09-04T21:26:28.323Z,16.66
2022-09-04T21:29:11.168Z,16.62
2022-09-04T21:32:08.948Z,16.57
2022-09-04T21:34:45.109Z,16.59
2022-09-04T21:37:23.824Z,16.59
2022-09-04T21:39:59.435Z,16.52
2022-09-04T21:42:53.021Z,16.51
2022-09-04T21:45:36.470Z,16.50
2022-09-04T21:48:25.739Z,16.48
2022-09-04T21:51:28.378Z,16.38
2022-09-04T21:54:23.293Z,16.34
2022-09-04T22:02:29.836Z,16.38
2022-09-04T22:02:35.358Z,16.34
2022-09-04T22:03:19.202Z,16.30
2022-09-04T22:06:07.901Z,16.27
2022-09-04T22:13:29.894Z,16.25
2022-09-04T22:13:44.168Z,16.22
2022-09-04T22:15:05.500Z,16.19
2022-09-04T22:17:41.039Z,16.12
2022-09-04T22:20:18.533Z,16.14
2022-09-04T22:23:24.746Z,16.16
2022-09-04T22:26:29.664Z,16.11
2022-09-04T22:29:10.340Z,16.05
2022-09-04T22:31:45.627Z,16.06
2022-09-04T22:34:36.689Z,16.04
2022-09-04T22:37:44.814Z,15.98
2022-09-04T22:40:17.199Z,15.90
2022-09-04T22:42:53.505Z,15.93
2022-09-04T22:45:28.959Z,15.81
2022-09-04T22:48:26.955Z,15.85
2022-09-04T22:51:20.342Z,15.87
2022-09-04T22:54:06.228Z,15.79
2022-09-04T22:56:46.329Z,15.77
2022-09-04T22:59:55.245Z,15.73
2022-09-04T23:05:44.996Z,15.74
2022-09-04T23:13:43.580Z,15.68
2022-09-04T23:13:54.154Z,15.71
2022-09-04T23:14:49.294Z,15.69
2022-09-04T23:17:58.305Z,15.67
2022-09-04T23:26:39.012Z,15.68
2022-09-04T23:26:45.850Z,15.71
2022-09-04T23:27:00.460Z,15.69
2022-09-04T23:30:03.745Z,15.67
2022-09-04T23:32:39.907Z,15.74
2022-09-04T23:35:15.102Z,15.83
2022-09-04T23:38:00.551Z,15.87
2022-09-04T23:41:01.775Z,15.94
2022-09-04T23:44:05.995Z,15.98
2022-09-04T23:46:47.566Z,16.03
2022-09-04T23:49:29.072Z,16.02
2022-09-04T23:52:03.174Z,16.04
2022-09-04T23:54:55.521Z,16.03
2022-09-04T23:57:29.078Z,16.04
